createdAt,value
2023-04-09T00:02:03.940Z,21.90
2023-04-09T00:04:31.460Z,20.33
2023-04-09T00:06:58.316Z,22.25
2023-04-09T00:09:25.459Z,22.77
2023-04-09T00:11:52.279Z,21.27
2023-04-09T00:14:19.150Z,21.60
2023-04-09T00:16:46.129Z,22.15
2023-04-09T00:19:12.934Z,22.10
2023-04-09T00:21:39.757Z,21.10
2023-04-09T00:24:06.772Z,21.08
2023-04-09T00:26:33.692Z,21.08
2023-04-09T00:29:00.599Z,21.45
2023-04-09T00:31:27.591Z,21.60
2023-04-09T00:33:54.522Z,21.02
2023-04-09T00:36:21.452Z,20.45
2023-04-09T00:38:50.594Z,20.60
2023-04-09T00:41:18.304Z,21.20
2023-04-09T00:43:45.454Z,19.63
2023-04-09T00:46:12.604Z,21.95
2023-04-09T00:48:40.504Z,20.98
2023-04-09T00:51:08.440Z,21.90
2023-04-09T00:53:35.754Z,20.85
2023-04-09T00:56:03.336Z,20.75
2023-04-09T00:58:30.316Z,22.80
2023-04-09T01:00:57.354Z,20.70
2023-04-09T01:03:24.299Z,21.40
2023-04-09T01:06:06.162Z,23.30
2023-04-09T01:09:02.860Z,21.02
2023-04-09T01:11:40.742Z,21.05
2023-04-09T01:14:13.608Z,22.33
2023-04-09T01:16:47.639Z,21.40
2023-04-09T01:19:42.960Z,21.10
2023-04-09T01:22:24.908Z,18.58
2023-04-09T01:25:14.852Z,21.50
2023-04-09T01:28:12.896Z,22.13
2023-04-09T01:30:42.085Z,23.15
2023-04-09T01:33:11.339Z,22.40
2023-04-09T01:35:38.672Z,22.33
2023-04-09T01:38:06.268Z,22.02
2023-04-09T01:40:33.565Z,21.55
2023-04-09T01:43:02.489Z,21.98
2023-04-09T01:45:29.441Z,22.27
2023-04-09T01:47:56.629Z,19.20
2023-04-09T01:50:23.873Z,22.73
2023-04-09T01:52:51.152Z,20.00
2023-04-09T01:55:18.034Z,22.73
2023-04-09T01:57:45.167Z,22.70
2023-04-09T02:00:12.571Z,21.73
2023-04-09T02:03:07.029Z,22.25
2023-04-09T02:05:41.483Z,21.10
2023-04-09T02:08:15.194Z,21.30
2023-04-09T02:10:51.889Z,21.73
2023-04-09T02:13:19.695Z,21.58
2023-04-09T02:15:47.830Z,22.33
2023-04-09T02:18:29.028Z,20.65
2023-04-09T02:20:57.396Z,22.83
2023-04-09T02:23:25.408Z,21.48
2023-04-09T02:25:53.813Z,21.70
2023-04-09T02:28:20.785Z,21.23
2023-04-09T02:30:47.844Z,22.35
2023-04-09T02:33:14.834Z,22.00
2023-04-09T02:35:41.713Z,21.35
2023-04-09T02:38:14.528Z,21.65
2023-04-09T02:40:41.659Z,21.70
2023-04-09T02:43:09.809Z,21.77
2023-04-09T02:45:36.964Z,23.17
2023-04-09T02:48:04.380Z,21.58
2023-04-09T02:50:35.076Z,21.05
2023-04-09T02:53:02.534Z,22.20
2023-04-09T02:55:29.505Z,20.90
2023-04-09T02:57:56.313Z,22.33
2023-04-09T03:00:23.272Z,22.13
2023-04-09T03:02:50.494Z,21.40
2023-04-09T03:05:17.380Z,21.60
2023-04-09T03:07:44.203Z,21.75
2023-04-09T03:10:11.306Z,21.95
2023-04-09T03:12:38.347Z,22.10
2023-04-09T03:15:05.791Z,22.38
2023-04-09T03:17:32.744Z,21.38
2023-04-09T03:19:59.594Z,21.60
2023-04-09T03:22:38.674Z,21.97
2023-04-09T03:25:15.071Z,22.38
2023-04-09T03:27:42.537Z,22.30
2023-04-09T03:30:11.483Z,23.05
2023-04-09T03:32:43.998Z,22.40
2023-04-09T03:35:13.025Z,22.02
2023-04-09T03:37:42.207Z,22.00
2023-04-09T03:40:15.556Z,23.27
2023-04-09T03:42:43.824Z,23.40
2023-04-09T03:45:13.171Z,23.38
2023-04-09T03:47:44.277Z,22.73
2023-04-09T03:50:12.020Z,22.85
2023-04-09T03:52:47.661Z,23.10
2023-04-09T03:55:14.648Z,23.58
2023-04-09T03:57:41.656Z,23.67
2023-04-09T04:00:13.490Z,23.27
2023-04-09T04:03:19.124Z,21.88
2023-04-09T04:06:12.074Z,23.85
2023-04-09T04:08:47.604Z,22.87
2023-04-09T04:11:15.594Z,23.23
2023-04-09T04:13:42.462Z,24.42
2023-04-09T04:16:10.645Z,23.42
2023-04-09T04:18:39.985Z,24.30
2023-04-09T04:21:16.345Z,24.60
2023-04-09T04:23:47.757Z,22.13
2023-04-09T04:26:22.198Z,24.40
2023-04-09T04:28:49.818Z,23.50
2023-04-09T04:31:29.647Z,24.25
2023-04-09T04:33:58.796Z,23.70
2023-04-09T04:36:26.193Z,25.15
2023-04-09T04:38:53.349Z,24.67
2023-04-09T04:41:34.392Z,24.85
2023-04-09T04:44:14.971Z,23.70
2023-04-09T04:46:42.456Z,24.67
2023-04-09T04:49:09.296Z,24.83
2023-04-09T04:51:43.079Z,25.48
2023-04-09T04:54:12.916Z,24.52
2023-04-09T04:56:44.674Z,21.90
2023-04-09T04:59:19.724Z,23.23
2023-04-09T05:01:57.183Z,21.95
2023-04-09T05:04:25.225Z,21.55
2023-04-09T05:06:52.375Z,22.50
2023-04-09T05:09:22.537Z,24.45
2023-04-09T05:12:01.786Z,24.92
2023-04-09T05:14:29.425Z,23.92
2023-04-09T05:16:56.660Z,24.48
2023-04-09T05:19:28.361Z,23.67
2023-04-09T05:22:01.663Z,23.98
2023-04-09T05:24:29.451Z,22.77
2023-04-09T05:26:56.261Z,21.63
2023-04-09T05:29:23.700Z,23.70
2023-04-09T05:31:51.044Z,24.42
2023-04-09T05:34:27.072Z,24.70
2023-04-09T05:36:55.980Z,25.08
2023-04-09T05:39:24.194Z,26.10
2023-04-09T05:41:52.545Z,24.00
2023-04-09T05:44:35.993Z,24.27
2023-04-09T05:47:10.580Z,24.80
2023-04-09T05:49:52.060Z,27.25
2023-04-09T05:52:19.818Z,29.63
2023-04-09T05:54:46.995Z,28.77
2023-04-09T05:57:18.171Z,30.58
2023-04-09T05:59:52.753Z,31.27
2023-04-09T06:02:20.062Z,33.13
2023-04-09T06:04:47.166Z,34.72
2023-04-09T06:07:15.497Z,37.42
2023-04-09T06:09:44.262Z,34.97
2023-04-09T06:12:11.115Z,36.83
2023-04-09T06:14:37.976Z,35.05
2023-04-09T06:17:05.578Z,35.28
2023-04-09T06:19:32.378Z,34.83
2023-04-09T06:21:59.206Z,36.33
2023-04-09T06:24:26.186Z,35.75
2023-04-09T06:26:52.955Z,35.72
2023-04-09T06:29:19.790Z,36.25
2023-04-09T06:31:46.655Z,34.78
2023-04-09T06:34:13.458Z,32.90
2023-04-09T06:36:40.596Z,33.03
2023-04-09T06:39:07.649Z,32.60
2023-04-09T06:41:34.787Z,33.67
2023-04-09T06:44:09.907Z,33.40
2023-04-09T06:46:36.797Z,32.63
2023-04-09T06:49:03.893Z,31.55
2023-04-09T06:51:31.933Z,31.50
2023-04-09T06:53:58.848Z,28.55
2023-04-09T06:56:25.812Z,28.07
2023-04-09T06:58:52.809Z,24.38
2023-04-09T07:01:20.220Z,23.75
2023-04-09T07:03:47.202Z,23.25
2023-04-09T07:06:14.232Z,22.05
2023-04-09T07:08:41.097Z,23.17
2023-04-09T07:11:08.392Z,22.40
2023-04-09T07:13:35.422Z,22.23
2023-04-09T07:16:02.367Z,21.83
2023-04-09T07:18:30.665Z,21.63
2023-04-09T07:20:57.608Z,21.50
2023-04-09T07:23:24.451Z,22.58
2023-04-09T07:25:51.614Z,21.30
2023-04-09T07:28:18.522Z,21.90
2023-04-09T07:30:47.004Z,21.63
2023-04-09T07:33:13.927Z,21.60
2023-04-09T07:35:40.983Z,18.75
2023-04-09T07:38:07.772Z,19.90
2023-04-09T07:40:35.375Z,16.20
2023-04-09T07:43:02.737Z,20.08
2023-04-09T07:45:29.550Z,16.98
2023-04-09T07:47:56.562Z,18.73
2023-04-09T07:50:23.665Z,16.10
2023-04-09T07:52:50.472Z,20.20
2023-04-09T07:55:18.528Z,18.85
2023-04-09T07:57:45.537Z,19.45
2023-04-09T08:00:12.805Z,17.15
2023-04-09T08:02:44.413Z,19.90
2023-04-09T08:05:11.768Z,19.70
2023-04-09T08:07:38.687Z,16.17
2023-04-09T08:10:06.917Z,17.83
2023-04-09T08:12:34.165Z,18.45
2023-04-09T08:15:03.587Z,16.40
2023-04-09T08:17:30.884Z,20.23
2023-04-09T08:19:57.764Z,19.95
2023-04-09T08:22:24.781Z,19.73
2023-04-09T08:24:53.188Z,19.90
2023-04-09T08:27:20.348Z,20.77
2023-04-09T08:29:47.241Z,20.60
2023-04-09T08:32:14.238Z,21.58
2023-04-09T08:34:41.321Z,21.38
2023-04-09T08:37:08.929Z,21.02
2023-04-09T08:39:36.470Z,20.92
2023-04-09T08:42:06.598Z,21.23
2023-04-09T08:44:33.461Z,21.13
2023-04-09T08:47:01.346Z,21.67
2023-04-09T08:49:28.208Z,21.50
2023-04-09T08:51:55.174Z,18.35
2023-04-09T08:54:23.407Z,22.08
2023-04-09T08:56:50.350Z,21.85
2023-04-09T08:59:20.815Z,21.63
2023-04-09T09:01:49.339Z,21.25
2023-04-09T09:04:16.528Z,21.07
2023-04-09T09:06:44.566Z,18.63
2023-04-09T09:09:16.266Z,21.27
2023-04-09T09:11:46.345Z,21.52
2023-04-09T09:14:16.083Z,20.55
2023-04-09T09:17:03.780Z,18.92
2023-04-09T09:19:33.608Z,21.27
2023-04-09T09:22:03.500Z,21.45
2023-04-09T09:24:32.530Z,22.50
2023-04-09T09:26:59.526Z,21.30
2023-04-09T09:29:27.631Z,20.43
2023-04-09T09:31:55.671Z,18.90
2023-04-09T09:34:24.319Z,21.90
2023-04-09T09:36:51.238Z,20.48
2023-04-09T09:39:18.372Z,21.97
2023-04-09T09:41:46.423Z,19.38
2023-04-09T09:44:31.887Z,21.60
2023-04-09T09:46:59.580Z,21.25
2023-04-09T09:49:26.622Z,22.13
2023-04-09T09:51:57.075Z,21.27
2023-04-09T09:54:25.986Z,22.73
2023-04-09T09:56:56.035Z,21.70
2023-04-09T09:59:27.126Z,21.77
2023-04-09T10:02:04.715Z,22.10
2023-04-09T10:04:38.228Z,21.80
2023-04-09T10:07:07.101Z,22.17
2023-04-09T10:09:36.894Z,22.65
2023-04-09T10:12:07.126Z,23.15
2023-04-09T10:14:35.967Z,22.83
2023-04-09T10:17:04.097Z,23.20
2023-04-09T10:19:35.707Z,20.73
2023-04-09T10:22:12.330Z,22.52
2023-04-09T10:24:39.512Z,22.30
2023-04-09T10:27:16.124Z,22.35
2023-04-09T10:29:48.963Z,21.17
2023-04-09T10:32:21.746Z,20.90
2023-04-09T10:34:50.804Z,21.27
2023-04-09T10:37:23.238Z,22.80
2023-04-09T10:39:52.432Z,23.67
2023-04-09T10:42:41.938Z,22.58
2023-04-09T10:45:09.057Z,23.52
2023-04-09T10:47:38.403Z,22.50
2023-04-09T10:50:44.408Z,22.77
2023-04-09T10:53:24.894Z,22.45
2023-04-09T10:55:53.973Z,23.63
2023-04-09T10:58:21.150Z,21.92
2023-04-09T11:00:49.707Z,22.45
2023-04-09T11:03:24.109Z,22.38
2023-04-09T11:06:09.001Z,20.75
2023-04-09T11:08:38.057Z,19.58
2023-04-09T11:11:06.025Z,21.20
2023-04-09T11:13:34.060Z,21.98
2023-04-09T11:16:03.542Z,22.15
2023-04-09T11:18:30.925Z,21.25
2023-04-09T11:21:03.439Z,20.75
2023-04-09T11:23:32.892Z,21.25
2023-04-09T11:25:59.819Z,22.15
2023-04-09T11:28:26.993Z,22.20
2023-04-09T11:30:53.952Z,22.02
2023-04-09T11:33:21.346Z,21.70
2023-04-09T11:35:48.901Z,19.83
2023-04-09T11:38:16.179Z,21.52
2023-04-09T11:40:48.730Z,22.88
2023-04-09T11:43:16.794Z,21.65
2023-04-09T11:45:44.759Z,18.55
2023-04-09T11:48:13.037Z,18.45
2023-04-09T11:50:40.580Z,17.70
2023-04-09T11:53:37.187Z,17.93
2023-04-09T11:56:04.681Z,15.98
2023-04-09T11:58:32.152Z,17.25
2023-04-09T12:00:59.331Z,18.48
2023-04-09T12:03:32.584Z,17.57
2023-04-09T12:06:01.972Z,17.85
2023-04-09T12:08:28.884Z,18.20
2023-04-09T12:10:56.103Z,17.92
2023-04-09T12:13:32.589Z,17.88
2023-04-09T12:16:01.389Z,19.33
2023-04-09T12:18:28.299Z,17.90
2023-04-09T12:20:55.126Z,18.83
2023-04-09T12:23:21.951Z,18.48
2023-04-09T12:25:48.745Z,18.10
2023-04-09T12:28:18.304Z,18.08
2023-04-09T12:30:46.340Z,18.27
2023-04-09T12:33:13.359Z,16.65
2023-04-09T12:35:40.620Z,16.70
2023-04-09T12:38:07.566Z,17.30
2023-04-09T12:40:36.902Z,16.92
2023-04-09T12:43:03.941Z,16.90
2023-04-09T12:45:31.317Z,15.63
2023-04-09T12:47:58.666Z,16.40
2023-04-09T12:50:25.972Z,15.88
2023-04-09T12:52:52.897Z,15.73
2023-04-09T12:55:19.881Z,15.57
2023-04-09T12:57:49.879Z,14.82
2023-04-09T13:00:16.714Z,15.15
2023-04-09T13:02:43.840Z,15.80
2023-04-09T13:05:10.987Z,14.80
2023-04-09T13:07:37.922Z,15.93
2023-04-09T13:10:05.215Z,14.82
2023-04-09T13:12:32.297Z,15.53
2023-04-09T13:14:59.359Z,15.73
2023-04-09T13:17:26.408Z,14.90
2023-04-09T13:19:53.775Z,15.10
2023-04-09T13:22:21.118Z,15.30
2023-04-09T13:24:48.034Z,14.70
2023-04-09T13:27:14.998Z,14.70
2023-04-09T13:29:41.884Z,14.60
2023-04-09T13:32:10.868Z,14.13
2023-04-09T13:34:39.039Z,14.50
2023-04-09T13:37:06.038Z,14.73
2023-04-09T13:39:33.119Z,14.38
2023-04-09T13:42:01.584Z,14.05
2023-04-09T13:44:32.647Z,13.55
2023-04-09T13:46:59.631Z,13.95
2023-04-09T13:49:27.532Z,13.98
2023-04-09T13:51:55.741Z,13.15
2023-04-09T13:54:22.582Z,13.90
2023-04-09T13:56:51.216Z,13.48
2023-04-09T13:59:18.127Z,12.73
2023-04-09T14:01:45.401Z,12.15
2023-04-09T14:04:12.547Z,11.90
2023-04-09T14:06:39.460Z,11.98
2023-04-09T14:09:06.370Z,11.83
2023-04-09T14:11:33.166Z,11.82
2023-04-09T14:14:00.353Z,12.25
2023-04-09T14:16:28.319Z,12.38
2023-04-09T14:18:55.623Z,12.25
2023-04-09T14:21:22.677Z,12.63
2023-04-09T14:23:49.920Z,12.13
2023-04-09T14:26:16.861Z,12.43
2023-04-09T14:28:44.442Z,11.60
2023-04-09T14:31:11.344Z,11.77
2023-04-09T14:33:38.393Z,12.20
2023-04-09T14:36:05.413Z,11.98
2023-04-09T14:38:33.234Z,11.52
2023-04-09T14:41:00.468Z,11.85
2023-04-09T14:43:27.572Z,10.95
2023-04-09T14:45:54.527Z,10.80
2023-04-09T14:48:21.369Z,10.93
2023-04-09T14:50:48.528Z,11.18
2023-04-09T14:53:15.419Z,10.60
2023-04-09T14:55:42.618Z,11.07
2023-04-09T14:58:09.495Z,10.45
2023-04-09T15:00:36.502Z,10.35
2023-04-09T15:03:03.924Z,10.52
2023-04-09T15:05:31.072Z,10.03
2023-04-09T15:07:57.897Z,10.15
2023-04-09T15:10:25.175Z,10.23
2023-04-09T15:12:52.065Z,10.00
2023-04-09T15:15:18.968Z,10.07
2023-04-09T15:17:46.039Z,9.90
2023-04-09T15:20:14.039Z,10.38
2023-04-09T15:22:41.135Z,10.10
2023-04-09T15:25:08.893Z,9.87
2023-04-09T15:27:36.028Z,9.63
2023-04-09T15:30:03.313Z,10.10
2023-04-09T15:32:31.596Z,8.90
2023-04-09T15:35:00.163Z,9.82
2023-04-09T15:37:27.591Z,9.77
2023-04-09T15:39:54.502Z,9.25
2023-04-09T15:42:22.992Z,9.45
2023-04-09T15:44:50.891Z,8.60
2023-04-09T15:47:18.040Z,9.13
2023-04-09T15:49:44.984Z,9.45
2023-04-09T15:52:12.107Z,10.00
2023-04-09T15:54:39.851Z,9.55
2023-04-09T15:57:06.636Z,9.70
2023-04-09T15:59:33.574Z,8.93
2023-04-09T16:02:01.209Z,9.13
2023-04-09T16:04:28.145Z,9.68
2023-04-09T16:06:56.453Z,9.32
2023-04-09T16:09:24.093Z,9.23
2023-04-09T16:11:51.523Z,9.20
2023-04-09T16:14:18.815Z,9.40
2023-04-09T16:16:50.064Z,9.80
2023-04-09T16:19:18.743Z,9.13
2023-04-09T16:21:45.713Z,9.90
2023-04-09T16:24:13.141Z,9.27
2023-04-09T16:26:44.436Z,9.32
2023-04-09T16:29:12.044Z,9.30
2023-04-09T16:31:42.198Z,10.07
2023-04-09T16:34:09.339Z,9.32
2023-04-09T16:36:41.119Z,9.00
2023-04-09T16:39:08.217Z,9.38
2023-04-09T16:41:36.952Z,9.47
2023-04-09T16:44:04.270Z,9.25
2023-04-09T16:46:31.580Z,9.70
2023-04-09T16:48:58.622Z,9.77
2023-04-09T16:51:25.817Z,10.00
2023-04-09T16:53:52.896Z,9.80
2023-04-09T16:56:20.241Z,9.60
2023-04-09T16:58:47.060Z,9.88
2023-04-09T17:01:14.054Z,9.90
2023-04-09T17:03:41.676Z,10.13
2023-04-09T17:06:08.564Z,9.65
2023-04-09T17:08:35.775Z,9.65
2023-04-09T17:11:03.142Z,9.40
2023-04-09T17:13:35.784Z,9.95
2023-04-09T17:16:03.465Z,10.05
2023-04-09T17:18:30.462Z,9.20
2023-04-09T17:20:57.539Z,9.63
2023-04-09T17:23:24.396Z,9.48
2023-04-09T17:25:51.272Z,9.60
2023-04-09T17:28:19.090Z,9.10
2023-04-09T17:30:46.214Z,8.97
2023-04-09T17:33:13.377Z,8.88
2023-04-09T17:35:41.676Z,8.63
2023-04-09T17:38:08.661Z,8.88
2023-04-09T17:40:35.450Z,9.30
2023-04-09T17:43:02.437Z,9.05
2023-04-09T17:45:29.330Z,8.98
2023-04-09T17:47:57.207Z,9.20
2023-04-09T17:50:24.221Z,9.35
2023-04-09T17:52:51.677Z,9.07
2023-04-09T17:55:18.586Z,9.27
2023-04-09T17:57:45.378Z,9.18
2023-04-09T18:00:12.949Z,9.48
2023-04-09T18:02:46.106Z,9.20
2023-04-09T18:05:13.462Z,8.75
2023-04-09T18:07:40.601Z,9.55
2023-04-09T18:10:07.843Z,9.20
2023-04-09T18:12:34.682Z,9.27
2023-04-09T18:15:01.553Z,9.32
2023-04-09T18:17:28.404Z,9.17
2023-04-09T18:19:58.210Z,8.95
2023-04-09T18:22:26.135Z,9.45
2023-04-09T18:24:53.105Z,10.00
2023-04-09T18:27:21.536Z,9.43
2023-04-09T18:29:51.651Z,9.52
2023-04-09T18:32:19.798Z,9.40
2023-04-09T18:34:47.817Z,9.32
2023-04-09T18:37:18.937Z,9.45
2023-04-09T18:39:48.880Z,9.55
2023-04-09T18:42:15.973Z,10.20
2023-04-09T18:44:42.921Z,9.95
2023-04-09T18:47:11.105Z,10.30
2023-04-09T18:49:38.768Z,10.38
2023-04-09T18:52:10.242Z,10.50
2023-04-09T18:54:37.635Z,10.60
2023-04-09T18:57:04.657Z,10.90
2023-04-09T18:59:33.718Z,10.50
2023-04-09T19:02:04.953Z,11.18
2023-04-09T19:04:36.405Z,10.70
2023-04-09T19:07:03.779Z,11.27
2023-04-09T19:09:31.579Z,11.05
2023-04-09T19:11:58.833Z,11.02
2023-04-09T19:14:26.085Z,10.40
2023-04-09T19:16:53.948Z,10.60
2023-04-09T19:19:20.993Z,10.50
2023-04-09T19:21:48.734Z,10.23
2023-04-09T19:24:16.058Z,11.48
2023-04-09T19:26:43.403Z,11.60
2023-04-09T19:29:10.307Z,10.98
2023-04-09T19:31:37.586Z,11.00
2023-04-09T19:34:06.136Z,11.02
2023-04-09T19:36:34.065Z,11.27
2023-04-09T19:39:01.483Z,11.07
2023-04-09T19:41:28.360Z,11.60
2023-04-09T19:43:55.420Z,11.55
2023-04-09T19:46:22.530Z,11.10
2023-04-09T19:48:49.491Z,11.05
2023-04-09T19:51:20.153Z,11.13
2023-04-09T19:53:47.889Z,11.52
2023-04-09T19:56:14.946Z,11.80
2023-04-09T19:58:43.258Z,11.75
2023-04-09T20:01:10.334Z,11.70
2023-04-09T20:03:37.377Z,12.35
2023-04-09T20:06:09.419Z,11.50
2023-04-09T20:08:37.903Z,11.85
2023-04-09T20:11:05.404Z,12.07
2023-04-09T20:13:33.209Z,11.47
2023-04-09T20:16:00.642Z,12.02
2023-04-09T20:18:28.595Z,11.60
2023-04-09T20:20:55.476Z,11.80
2023-04-09T20:23:22.365Z,11.70
2023-04-09T20:25:54.817Z,11.27
2023-04-09T20:28:22.112Z,12.05
2023-04-09T20:30:49.414Z,12.27
2023-04-09T20:33:17.675Z,13.13
2023-04-09T20:35:44.687Z,13.32
2023-04-09T20:38:11.678Z,13.52
2023-04-09T20:40:38.533Z,13.38
2023-04-09T20:43:05.374Z,13.55
2023-04-09T20:45:32.320Z,13.52
2023-04-09T20:47:59.170Z,13.83
2023-04-09T20:50:26.210Z,14.05
2023-04-09T20:52:53.078Z,15.13
2023-04-09T20:55:19.994Z,15.50
2023-04-09T20:57:47.389Z,15.02
2023-04-09T21:00:14.690Z,13.45
2023-04-09T21:02:41.829Z,14.18
2023-04-09T21:05:21.722Z,13.30
2023-04-09T21:07:50.730Z,13.02
2023-04-09T21:10:17.933Z,13.07
2023-04-09T21:12:44.872Z,12.50
2023-04-09T21:15:11.844Z,12.85
2023-04-09T21:17:38.803Z,12.27
2023-04-09T21:20:06.233Z,11.83
2023-04-09T21:22:34.741Z,11.90
2023-04-09T21:25:03.101Z,11.60
2023-04-09T21:27:30.211Z,12.02
2023-04-09T21:29:57.476Z,12.27
2023-04-09T21:32:25.230Z,12.10
2023-04-09T21:34:52.289Z,12.32
2023-04-09T21:37:19.249Z,12.20
2023-04-09T21:39:48.310Z,12.38
2023-04-09T21:42:15.728Z,12.63
2023-04-09T21:44:42.701Z,12.95
2023-04-09T21:47:09.642Z,12.90
2023-04-09T21:49:40.068Z,13.07
2023-04-09T21:52:14.464Z,12.73
2023-04-09T21:54:42.688Z,13.30
2023-04-09T21:57:10.448Z,12.70
2023-04-09T21:59:37.604Z,13.13
2023-04-09T22:02:05.059Z,12.80
2023-04-09T22:04:32.640Z,13.60
2023-04-09T22:06:59.795Z,13.10
2023-04-09T22:09:26.651Z,12.55
2023-04-09T22:11:53.840Z,13.20
2023-04-09T22:14:22.004Z,12.57
2023-04-09T22:16:48.899Z,12.18
2023-04-09T22:19:16.078Z,12.50
2023-04-09T22:21:43.136Z,12.27
2023-04-09T22:24:10.004Z,13.07
2023-04-09T22:26:36.936Z,12.68
2023-04-09T22:29:05.700Z,12.68
2023-04-09T22:31:33.769Z,13.17
2023-04-09T22:34:10.071Z,13.50
2023-04-09T22:36:44.384Z,13.70
2023-04-09T22:39:11.478Z,13.82
2023-04-09T22:41:39.044Z,14.43
2023-04-09T22:44:06.832Z,14.25
2023-04-09T22:46:34.835Z,13.98
2023-04-09T22:49:04.986Z,14.45
2023-04-09T22:51:34.769Z,14.07
2023-04-09T22:54:02.405Z,13.95
2023-04-09T22:56:31.541Z,14.70
2023-04-09T22:58:58.537Z,14.73
2023-04-09T23:01:26.560Z,14.35
2023-04-09T23:03:53.799Z,14.88
2023-04-09T23:06:22.314Z,14.55
2023-04-09T23:08:49.296Z,15.27
2023-04-09T23:11:16.505Z,14.68
2023-04-09T23:13:43.629Z,15.07
2023-04-09T23:16:11.124Z,15.60
2023-04-09T23:18:38.020Z,14.68
2023-04-09T23:21:07.205Z,15.00
2023-04-09T23:23:34.873Z,15.53
2023-04-09T23:26:02.182Z,14.93
2023-04-09T23:28:29.592Z,14.15
2023-04-09T23:30:56.846Z,14.48
2023-04-09T23:33:23.992Z,14.77
2023-04-09T23:35:51.081Z,14.63
2023-04-09T23:38:18.171Z,14.17
2023-04-09T23:40:47.240Z,14.43
2023-04-09T23:43:14.114Z,14.35
2023-04-09T23:45:41.125Z,13.87
2023-04-09T23:48:08.933Z,13.52
2023-04-09T23:50:42.248Z,13.35
2023-04-09T23:53:09.221Z,13.70
2023-04-09T23:55:41.100Z,13.05
2023-04-09T23:58:08.518Z,12.85
